sensor_id;sensor_type;location;lat;lon;timestamp;pressure;altitude;pressure_sealevel;temperature;humidity
16544;BME280;8384;47.996;7.786;2022-09-28T00:00:26;97225.28;;;10.46;85.77
16544;BME280;8384;47.996;7.786;2022-09-28T00:02:53;97244.00;;;10.53;85.08
16544;BME280;8384;47.996;7.786;2022-09-28T00:05:21;97235.72;;;10.58;84.96
16544;BME280;8384;47.996;7.786;2022-09-28T00:07:47;97237.78;;;10.66;84.61
16544;BME280;8384;47.996;7.786;2022-09-28T00:10:13;97237.47;;;10.68;85.58
16544;BME280;8384;47.996;7.786;2022-09-28T00:12:40;97244.06;;;10.67;84.77
16544;BME280;8384;47.996;7.786;2022-09-28T00:15:06;97209.25;;;10.58;84.19
16544;BME280;8384;47.996;7.786;2022-09-28T00:17:32;97202.97;;;10.72;84.43
16544;BME280;8384;47.996;7.786;2022-09-28T00:19:57;97204.28;;;10.74;84.65
16544;BME280;8384;47.996;7.786;2022-09-28T00:22:22;97179.56;;;10.52;84.65
16544;BME280;8384;47.996;7.786;2022-09-28T00:24:48;97186.28;;;10.59;84.41
16544;BME280;8384;47.996;7.786;2022-09-28T00:27:13;97190.44;;;10.71;84.28
16544;BME280;8384;47.996;7.786;2022-09-28T00:29:38;97181.91;;;10.58;85.03
16544;BME280;8384;47.996;7.786;2022-09-28T00:32:10;97190.44;;;10.71;84.73
16544;BME280;8384;47.996;7.786;2022-09-28T00:34:40;97192.66;;;10.69;84.66
16544;BME280;8384;47.996;7.786;2022-09-28T00:37:08;97189.00;;;10.73;84.48
16544;BME280;8384;47.996;7.786;2022-09-28T00:39:34;97170.38;;;10.61;84.68
16544;BME280;8384;47.996;7.786;2022-09-28T00:42:02;97185.88;;;10.66;85.48
16544;BME280;8384;47.996;7.786;2022-09-28T00:47:00;97182.75;;;10.73;84.50
16544;BME280;8384;47.996;7.786;2022-09-28T00:49:56;97169.28;;;10.76;84.95
16544;BME280;8384;47.996;7.786;2022-09-28T00:52:23;97154.38;;;10.69;84.94
16544;BME280;8384;47.996;7.786;2022-09-28T00:54:50;97157.22;;;10.63;85.63
16544;BME280;8384;47.996;7.786;2022-09-28T00:57:18;97140.63;;;10.60;85.43
16544;BME280;8384;47.996;7.786;2022-09-28T00:59:44;97132.22;;;10.56;85.39
16544;BME280;8384;47.996;7.786;2022-09-28T01:02:10;97151.34;;;10.56;85.82
16544;BME280;8384;47.996;7.786;2022-09-28T01:04:36;97109.75;;;10.45;85.73
16544;BME280;8384;47.996;7.786;2022-09-28T01:07:02;97117.66;;;10.61;86.26
16544;BME280;8384;47.996;7.786;2022-09-28T01:09:27;97118.97;;;10.63;85.43
16544;BME280;8384;47.996;7.786;2022-09-28T01:11:54;97113.91;;;10.57;86.22
16544;BME280;8384;47.996;7.786;2022-09-28T01:14:20;97078.41;;;10.38;86.41
16544;BME280;8384;47.996;7.786;2022-09-28T01:22:30;97089.41;;;10.52;86.69
16544;BME280;8384;47.996;7.786;2022-09-28T01:25:53;97089.19;;;10.48;86.60
16544;BME280;8384;47.996;7.786;2022-09-28T01:28:27;97076.84;;;10.50;87.11
16544;BME280;8384;47.996;7.786;2022-09-28T01:33:31;97060.59;;;10.45;86.81
16544;BME280;8384;47.996;7.786;2022-09-28T01:36:04;97052.38;;;10.45;87.22
16544;BME280;8384;47.996;7.786;2022-09-28T01:38:36;97056.09;;;10.49;87.48
16544;BME280;8384;47.996;7.786;2022-09-28T01:41:04;97036.94;;;10.21;87.63
16544;BME280;8384;47.996;7.786;2022-09-28T01:43:34;97032.81;;;10.24;87.66
16544;BME280;8384;47.996;7.786;2022-09-28T01:46:13;97040.06;;;10.29;87.89
16544;BME280;8384;47.996;7.786;2022-09-28T01:48:45;97039.88;;;10.25;88.73
16544;BME280;8384;47.996;7.786;2022-09-28T01:51:18;97050.56;;;10.21;88.08
16544;BME280;8384;47.996;7.786;2022-09-28T01:53:50;97034.50;;;10.20;89.39
16544;BME280;8384;47.996;7.786;2022-09-28T01:56:23;97031.88;;;10.15;89.25
16544;BME280;8384;47.996;7.786;2022-09-28T01:58:54;97030.13;;;10.05;91.11
16544;BME280;8384;47.996;7.786;2022-09-28T02:01:28;97034.97;;;9.94;91.32
16544;BME280;8384;47.996;7.786;2022-09-28T02:03:59;97023.84;;;9.90;93.27
16544;BME280;8384;47.996;7.786;2022-09-28T02:06:35;97012.19;;;9.85;94.42
16544;BME280;8384;47.996;7.786;2022-09-28T02:09:07;96982.66;;;9.73;94.22
16544;BME280;8384;47.996;7.786;2022-09-28T02:11:36;96997.66;;;9.89;93.71
16544;BME280;8384;47.996;7.786;2022-09-28T02:14:08;96974.91;;;9.47;95.01
16544;BME280;8384;47.996;7.786;2022-09-28T02:16:48;97010.84;;;9.68;95.29
16544;BME280;8384;47.996;7.786;2022-09-28T02:19:18;97021.91;;;9.58;95.43
16544;BME280;8384;47.996;7.786;2022-09-28T02:24:38;96978.91;;;9.36;95.97
16544;BME280;8384;47.996;7.786;2022-09-28T02:27:11;96993.41;;;9.50;96.50
16544;BME280;8384;47.996;7.786;2022-09-28T02:29:37;96985.72;;;9.52;95.38
16544;BME280;8384;47.996;7.786;2022-09-28T02:32:03;97002.66;;;9.68;94.05
16544;BME280;8384;47.996;7.786;2022-09-28T02:34:28;97000.94;;;9.72;95.80
16544;BME280;8384;47.996;7.786;2022-09-28T02:36:53;96992.03;;;9.67;95.17
16544;BME280;8384;47.996;7.786;2022-09-28T02:39:19;96944.69;;;9.43;95.68
16544;BME280;8384;47.996;7.786;2022-09-28T02:41:54;96969.72;;;9.65;95.64
16544;BME280;8384;47.996;7.786;2022-09-28T02:44:28;96956.19;;;9.73;95.08
16544;BME280;8384;47.996;7.786;2022-09-28T02:49:57;96968.88;;;9.64;95.41
16544;BME280;8384;47.996;7.786;2022-09-28T02:52:41;96962.72;;;9.58;96.76
16544;BME280;8384;47.996;7.786;2022-09-28T02:55:31;96971.69;;;9.59;97.42
16544;BME280;8384;47.996;7.786;2022-09-28T02:58:04;96964.63;;;9.58;97.35
16544;BME280;8384;47.996;7.786;2022-09-28T03:00:41;96965.97;;;9.60;98.25
16544;BME280;8384;47.996;7.786;2022-09-28T03:03:20;96962.72;;;9.58;98.20
16544;BME280;8384;47.996;7.786;2022-09-28T03:06:01;96959.59;;;9.65;96.80
16544;BME280;8384;47.996;7.786;2022-09-28T03:08:42;96895.72;;;9.19;97.08
16544;BME280;8384;47.996;7.786;2022-09-28T03:11:16;96965.75;;;9.71;97.23
16544;BME280;8384;47.996;7.786;2022-09-28T03:13:44;96945.41;;;9.49;98.09
16544;BME280;8384;47.996;7.786;2022-09-28T03:16:15;96968.09;;;9.64;97.44
16544;BME280;8384;47.996;7.786;2022-09-28T03:18:41;96925.47;;;9.35;97.51
16544;BME280;8384;47.996;7.786;2022-09-28T03:21:08;96968.59;;;9.66;97.46
16544;BME280;8384;47.996;7.786;2022-09-28T03:23:34;96968.88;;;9.64;97.98
16544;BME280;8384;47.996;7.786;2022-09-28T03:26:00;96968.00;;;9.83;97.78
16544;BME280;8384;47.996;7.786;2022-09-28T03:28:25;96983.47;;;9.73;99.02
16544;BME280;8384;47.996;7.786;2022-09-28T03:30:51;96960.28;;;9.57;100.00
16544;BME280;8384;47.996;7.786;2022-09-28T03:33:16;96941.19;;;9.57;100.00
16544;BME280;8384;47.996;7.786;2022-09-28T03:35:48;96982.66;;;9.73;100.00
16544;BME280;8384;47.996;7.786;2022-09-28T03:38:15;96951.50;;;9.60;100.00
16544;BME280;8384;47.996;7.786;2022-09-28T03:40:41;96944.81;;;9.52;100.00
16544;BME280;8384;47.996;7.786;2022-09-28T03:43:06;96932.19;;;9.56;100.00
16544;BME280;8384;47.996;7.786;2022-09-28T03:45:31;96905.97;;;9.27;100.00
16544;BME280;8384;47.996;7.786;2022-09-28T03:47:56;96901.56;;;9.45;100.00
16544;BME280;8384;47.996;7.786;2022-09-28T03:50:22;96895.09;;;9.41;100.00
16544;BME280;8384;47.996;7.786;2022-09-28T03:52:47;96901.56;;;9.45;100.00
16544;BME280;8384;47.996;7.786;2022-09-28T03:55:12;96889.94;;;9.40;100.00
16544;BME280;8384;47.996;7.786;2022-09-28T03:57:38;96882.75;;;9.44;100.00
16544;BME280;8384;47.996;7.786;2022-09-28T04:00:04;96873.44;;;9.31;100.00
16544;BME280;8384;47.996;7.786;2022-09-28T04:02:30;96904.38;;;9.40;100.00
16544;BME280;8384;47.996;7.786;2022-09-28T04:04:55;96901.56;;;9.45;100.00
16544;BME280;8384;47.996;7.786;2022-09-28T04:07:21;96897.00;;;9.27;100.00
16544;BME280;8384;47.996;7.786;2022-09-28T04:09:46;96906.19;;;9.45;100.00
16544;BME280;8384;47.996;7.786;2022-09-28T04:12:11;96903.59;;;9.40;100.00
16544;BME280;8384;47.996;7.786;2022-09-28T04:14:36;96877.00;;;9.32;100.00
16544;BME280;8384;47.996;7.786;2022-09-28T04:17:02;96904.72;;;9.67;100.00
16544;BME280;8384;47.996;7.786;2022-09-28T04:19:27;96866.81;;;9.51;100.00
16544;BME280;8384;47.996;7.786;2022-09-28T04:21:52;96905.75;;;9.71;100.00
16544;BME280;8384;47.996;7.786;2022-09-28T04:24:18;96904.41;;;9.54;100.00
16544;BME280;8384;47.996;7.786;2022-09-28T04:26:44;96915.84;;;9.56;100.00
16544;BME280;8384;47.996;7.786;2022-09-28T04:29:10;96924.63;;;9.53;100.00
16544;BME280;8384;47.996;7.786;2022-09-28T04:31:44;96891.34;;;9.37;100.00
16544;BME280;8384;47.996;7.786;2022-09-28T04:34:15;96923.19;;;9.56;100.00
16544;BME280;8384;47.996;7.786;2022-09-28T04:36:45;96916.25;;;9.64;100.00
16544;BME280;8384;47.996;7.786;2022-09-28T04:39:12;96916.78;;;9.66;100.00
16544;BME280;8384;47.996;7.786;2022-09-28T04:41:38;96882.69;;;9.49;100.00
16544;BME280;8384;47.996;7.786;2022-09-28T04:44:03;96874.91;;;9.56;100.00
16544;BME280;8384;47.996;7.786;2022-09-28T04:46:28;96897.75;;;9.60;100.00
16544;BME280;8384;47.996;7.786;2022-09-28T04:48:54;96894.41;;;9.50;100.00
16544;BME280;8384;47.996;7.786;2022-09-28T04:51:19;96909.78;;;9.59;100.00
16544;BME280;8384;47.996;7.786;2022-09-28T04:53:44;96909.19;;;9.63;100.00
16544;BME280;8384;47.996;7.786;2022-09-28T04:56:12;96897.34;;;9.53;100.00
16544;BME280;8384;47.996;7.786;2022-09-28T04:58:38;96909.91;;;9.68;100.00
16544;BME280;8384;47.996;7.786;2022-09-28T05:01:13;96911.31;;;9.66;100.00
16544;BME280;8384;47.996;7.786;2022-09-28T05:03:39;96900.78;;;9.59;100.00
16544;BME280;8384;47.996;7.786;2022-09-28T05:06:04;96911.19;;;9.71;100.00
16544;BME280;8384;47.996;7.786;2022-09-28T05:08:33;96924.84;;;9.71;100.00
16544;BME280;8384;47.996;7.786;2022-09-28T05:11:04;96927.28;;;9.72;100.00
16544;BME280;8384;47.996;7.786;2022-09-28T05:13:30;96930.72;;;9.78;100.00
16544;BME280;8384;47.996;7.786;2022-09-28T05:15:57;96915.97;;;9.79;100.00
16544;BME280;8384;47.996;7.786;2022-09-28T05:18:22;96939.63;;;9.84;100.00
16544;BME280;8384;47.996;7.786;2022-09-28T05:20:48;96939.03;;;9.87;100.00
16544;BME280;8384;47.996;7.786;2022-09-28T05:23:14;96928.69;;;9.70;100.00
16544;BME280;8384;47.996;7.786;2022-09-28T05:25:41;96933.63;;;9.68;100.00
16544;BME280;8384;47.996;7.786;2022-09-28T05:28:06;96922.13;;;9.71;100.00
16544;BME280;8384;47.996;7.786;2022-09-28T05:30:33;96942.66;;;9.82;100.00
16544;BME280;8384;47.996;7.786;2022-09-28T05:32:58;96907.00;;;9.79;100.00
16544;BME280;8384;47.996;7.786;2022-09-28T05:35:24;96934.56;;;9.91;100.00
16544;BME280;8384;47.996;7.786;2022-09-28T05:37:49;96943.88;;;9.90;100.00
16544;BME280;8384;47.996;7.786;2022-09-28T05:40:15;96947.03;;;9.97;100.00
16544;BME280;8384;47.996;7.786;2022-09-28T05:42:40;96952.16;;;9.85;100.00
16544;BME280;8384;47.996;7.786;2022-09-28T05:45:07;96957.63;;;9.99;100.00
16544;BME280;8384;47.996;7.786;2022-09-28T05:47:37;96958.34;;;9.90;100.00
16544;BME280;8384;47.996;7.786;2022-09-28T05:50:03;96957.63;;;9.99;100.00
16544;BME280;8384;47.996;7.786;2022-09-28T05:52:29;96956.41;;;9.91;100.00
16544;BME280;8384;47.996;7.786;2022-09-28T05:54:54;96963.69;;;9.96;100.00
16544;BME280;8384;47.996;7.786;2022-09-28T05:57:19;96945.38;;;9.82;100.00
16544;BME280;8384;47.996;7.786;2022-09-28T05:59:44;96965.03;;;9.98;100.00
16544;BME280;8384;47.996;7.786;2022-09-28T06:02:10;96968.53;;;9.99;100.00
16544;BME280;8384;47.996;7.786;2022-09-28T06:04:35;96971.38;;;10.08;100.00
16544;BME280;8384;47.996;7.786;2022-09-28T06:07:00;96977.06;;;9.97;100.00
16544;BME280;8384;47.996;7.786;2022-09-28T06:09:25;96948.00;;;9.73;100.00
16544;BME280;8384;47.996;7.786;2022-09-28T06:11:51;96979.06;;;9.92;100.00
16544;BME280;8384;47.996;7.786;2022-09-28T06:14:17;96962.56;;;9.83;100.00
16544;BME280;8384;47.996;7.786;2022-09-28T06:16:43;96985.75;;;9.99;100.00
16544;BME280;8384;47.996;7.786;2022-09-28T06:19:08;96992.03;;;10.14;100.00
16544;BME280;8384;47.996;7.786;2022-09-28T06:21:34;96978.88;;;10.02;100.00
16544;BME280;8384;47.996;7.786;2022-09-28T06:24:00;97000.09;;;10.05;100.00
16544;BME280;8384;47.996;7.786;2022-09-28T06:26:25;96987.75;;;9.80;100.00
16544;BME280;8384;47.996;7.786;2022-09-28T06:28:51;97000.34;;;9.75;100.00
16544;BME280;8384;47.996;7.786;2022-09-28T06:31:16;97000.22;;;9.67;100.00
16544;BME280;8384;47.996;7.786;2022-09-28T06:33:48;97033.91;;;9.76;100.00
16544;BME280;8384;47.996;7.786;2022-09-28T06:36:13;97017.59;;;9.71;100.00
16544;BME280;8384;47.996;7.786;2022-09-28T06:38:38;97029.78;;;9.79;100.00
16544;BME280;8384;47.996;7.786;2022-09-28T06:41:04;97050.34;;;9.71;100.00
16544;BME280;8384;47.996;7.786;2022-09-28T06:43:30;97021.09;;;9.57;100.00
16544;BME280;8384;47.996;7.786;2022-09-28T06:45:55;97027.16;;;9.54;100.00
16544;BME280;8384;47.996;7.786;2022-09-28T06:48:20;97015.28;;;9.45;100.00
16544;BME280;8384;47.996;7.786;2022-09-28T06:50:46;97057.50;;;9.67;100.00
16544;BME280;8384;47.996;7.786;2022-09-28T06:53:13;97056.84;;;9.56;100.00
16544;BME280;8384;47.996;7.786;2022-09-28T06:55:43;97061.28;;;9.52;100.00
16544;BME280;8384;47.996;7.786;2022-09-28T06:58:15;97067.56;;;9.52;100.00
16544;BME280;8384;47.996;7.786;2022-09-28T07:00:41;97073.00;;;9.52;100.00
16544;BME280;8384;47.996;7.786;2022-09-28T07:03:10;97053.63;;;9.35;100.00
16544;BME280;8384;47.996;7.786;2022-09-28T07:05:40;97060.84;;;9.25;100.00
16544;BME280;8384;47.996;7.786;2022-09-28T07:08:06;97043.81;;;9.14;100.00
16544;BME280;8384;47.996;7.786;2022-09-28T07:10:31;97073.97;;;9.23;100.00
16544;BME280;8384;47.996;7.786;2022-09-28T07:13:01;97081.94;;;9.39;100.00
16544;BME280;8384;47.996;7.786;2022-09-28T07:15:27;97083.78;;;9.43;100.00
16544;BME280;8384;47.996;7.786;2022-09-28T07:17:56;97064.59;;;9.10;100.00
16544;BME280;8384;47.996;7.786;2022-09-28T07:20:22;97093.44;;;9.36;100.00
16544;BME280;8384;47.996;7.786;2022-09-28T07:22:52;97073.06;;;9.28;100.00
16544;BME280;8384;47.996;7.786;2022-09-28T07:25:17;97071.81;;;9.39;100.00
16544;BME280;8384;47.996;7.786;2022-09-28T07:27:42;97090.63;;;9.60;100.00
16544;BME280;8384;47.996;7.786;2022-09-28T07:30:08;97087.50;;;9.67;100.00
16544;BME280;8384;47.996;7.786;2022-09-28T07:32:33;97093.94;;;9.57;100.00
16544;BME280;8384;47.996;7.786;2022-09-28T07:35:01;97098.22;;;9.63;100.00
16544;BME280;8384;47.996;7.786;2022-09-28T07:37:36;97086.50;;;9.63;100.00
16544;BME280;8384;47.996;7.786;2022-09-28T07:40:06;97104.63;;;9.72;100.00
16544;BME280;8384;47.996;7.786;2022-09-28T07:42:50;97085.28;;;9.69;100.00
16544;BME280;8384;47.996;7.786;2022-09-28T07:45:16;97080.28;;;9.76;100.00
16544;BME280;8384;47.996;7.786;2022-09-28T07:47:41;97111.97;;;9.91;100.00
16544;BME280;8384;47.996;7.786;2022-09-28T07:50:07;97118.97;;;9.97;100.00
16544;BME280;8384;47.996;7.786;2022-09-28T07:52:32;97111.72;;;10.06;100.00
16544;BME280;8384;47.996;7.786;2022-09-28T07:54:59;97112.97;;;10.14;100.00
16544;BME280;8384;47.996;7.786;2022-09-28T07:57:26;97117.91;;;10.12;100.00
16544;BME280;8384;47.996;7.786;2022-09-28T07:59:52;97128.91;;;10.07;100.00
16544;BME280;8384;47.996;7.786;2022-09-28T08:02:18;97137.69;;;10.04;100.00
16544;BME280;8384;47.996;7.786;2022-09-28T08:04:48;97086.63;;;9.52;100.00
16544;BME280;8384;47.996;7.786;2022-09-28T08:07:15;97133.00;;;9.90;100.00
16544;BME280;8384;47.996;7.786;2022-09-28T08:09:42;97145.50;;;10.11;100.00
16544;BME280;8384;47.996;7.786;2022-09-28T08:12:07;97151.34;;;10.04;100.00
16544;BME280;8384;47.996;7.786;2022-09-28T08:14:33;97146.47;;;10.01;100.00
16544;BME280;8384;47.996;7.786;2022-09-28T08:17:00;97155.13;;;10.08;100.00
16544;BME280;8384;47.996;7.786;2022-09-28T08:19:25;97129.31;;;10.00;100.00
16544;BME280;8384;47.996;7.786;2022-09-28T08:21:50;97159.72;;;10.27;100.00
16544;BME280;8384;47.996;7.786;2022-09-28T08:24:16;97149.03;;;10.30;100.00
16544;BME280;8384;47.996;7.786;2022-09-28T08:26:42;97146.59;;;10.29;100.00
16544;BME280;8384;47.996;7.786;2022-09-28T08:29:08;97157.44;;;10.34;100.00
16544;BME280;8384;47.996;7.786;2022-09-28T08:31:34;97161.16;;;10.05;100.00
16544;BME280;8384;47.996;7.786;2022-09-28T08:34:00;97163.63;;;10.20;100.00
16544;BME280;8384;47.996;7.786;2022-09-28T08:36:25;97148.41;;;10.19;100.00
16544;BME280;8384;47.996;7.786;2022-09-28T08:38:52;97170.31;;;10.14;100.00
16544;BME280;8384;47.996;7.786;2022-09-28T08:44:07;97155.03;;;10.13;100.00
16544;BME280;8384;47.996;7.786;2022-09-28T08:46:39;97184.00;;;10.28;100.00
16544;BME280;8384;47.996;7.786;2022-09-28T08:49:28;97181.19;;;10.33;100.00
16544;BME280;8384;47.996;7.786;2022-09-28T08:52:06;97181.75;;;10.49;100.00
16544;BME280;8384;47.996;7.786;2022-09-28T08:54:45;97190.88;;;10.45;100.00
16544;BME280;8384;47.996;7.786;2022-09-28T08:57:21;97195.44;;;10.49;100.00
16544;BME280;8384;47.996;7.786;2022-09-28T08:59:56;97164.50;;;10.35;100.00
16544;BME280;8384;47.996;7.786;2022-09-28T09:02:27;97200.00;;;10.54;100.00
16544;BME280;8384;47.996;7.786;2022-09-28T09:04:54;97187.53;;;10.48;100.00
16544;BME280;8384;47.996;7.786;2022-09-28T09:07:25;97199.19;;;10.54;100.00
16544;BME280;8384;47.996;7.786;2022-09-28T09:10:17;97163.69;;;10.34;100.00
16544;BME280;8384;47.996;7.786;2022-09-28T09:15:32;97167.75;;;10.56;100.00
16544;BME280;8384;47.996;7.786;2022-09-28T09:18:19;97193.69;;;10.87;100.00
16544;BME280;8384;47.996;7.786;2022-09-28T09:20:54;97199.31;;;10.62;100.00
16544;BME280;8384;47.996;7.786;2022-09-28T09:26:04;97212.19;;;10.62;100.00
16544;BME280;8384;47.996;7.786;2022-09-28T09:40:04;97222.06;;;10.58;100.00
16544;BME280;8384;47.996;7.786;2022-09-28T09:45:48;97223.38;;;10.60;100.00
16544;BME280;8384;47.996;7.786;2022-09-28T09:48:25;97199.66;;;10.23;100.00
16544;BME280;8384;47.996;7.786;2022-09-28T09:50:58;97218.03;;;10.36;100.00
16544;BME280;8384;47.996;7.786;2022-09-28T09:53:41;97198.59;;;10.57;100.00
16544;BME280;8384;47.996;7.786;2022-09-28T09:56:18;97212.75;;;10.92;100.00
16544;BME280;8384;47.996;7.786;2022-09-28T09:58:52;97206.25;;;10.88;100.00
16544;BME280;8384;47.996;7.786;2022-09-28T10:01:27;97211.22;;;10.86;100.00
16544;BME280;8384;47.996;7.786;2022-09-28T10:03:55;97210.00;;;10.78;100.00
16544;BME280;8384;47.996;7.786;2022-09-28T10:06:31;97211.91;;;10.77;100.00
16544;BME280;8384;47.996;7.786;2022-09-28T10:09:03;97215.25;;;10.88;100.00
16544;BME280;8384;47.996;7.786;2022-09-28T10:11:45;97207.63;;;10.57;100.00
16544;BME280;8384;47.996;7.786;2022-09-28T10:14:32;97213.66;;;10.35;100.00
16544;BME280;8384;47.996;7.786;2022-09-28T10:16:59;97193.53;;;10.50;100.00
16544;BME280;8384;47.996;7.786;2022-09-28T10:19:34;97213.34;;;10.89;100.00
16544;BME280;8384;47.996;7.786;2022-09-28T10:22:03;97161.19;;;10.38;100.00
16544;BME280;8384;47.996;7.786;2022-09-28T10:24:33;97207.28;;;10.92;100.00
16544;BME280;8384;47.996;7.786;2022-09-28T10:27:08;97210.81;;;10.92;100.00
16544;BME280;8384;47.996;7.786;2022-09-28T10:29:49;97203.63;;;10.97;100.00
16544;BME280;8384;47.996;7.786;2022-09-28T10:32:21;97203.59;;;10.83;100.00
16544;BME280;8384;47.996;7.786;2022-09-28T10:34:48;97204.94;;;10.85;97.04
16544;BME280;8384;47.996;7.786;2022-09-28T10:37:15;97201.91;;;10.87;95.14
16544;BME280;8384;47.996;7.786;2022-09-28T10:39:49;97158.22;;;10.68;96.40
16544;BME280;8384;47.996;7.786;2022-09-28T10:42:27;97200.22;;;11.05;99.58
16544;BME280;8384;47.996;7.786;2022-09-28T10:45:00;97204.56;;;11.34;98.46
16544;BME280;8384;47.996;7.786;2022-09-28T10:47:29;97204.97;;;11.27;98.09
16544;BME280;8384;47.996;7.786;2022-09-28T10:49:57;97172.16;;;10.85;99.10
16544;BME280;8384;47.996;7.786;2022-09-28T10:54:54;97208.19;;;11.01;97.39
16544;BME280;8384;47.996;7.786;2022-09-28T10:57:35;97207.28;;;11.06;97.10
16544;BME280;8384;47.996;7.786;2022-09-28T11:00:02;97197.34;;;10.82;98.29
16544;BME280;8384;47.996;7.786;2022-09-28T11:02:34;97208.00;;;10.98;98.50
16544;BME280;8384;47.996;7.786;2022-09-28T11:05:03;97203.34;;;11.12;98.25
16544;BME280;8384;47.996;7.786;2022-09-28T11:07:31;97180.56;;;11.31;95.50
16544;BME280;8384;47.996;7.786;2022-09-28T11:09:57;97199.19;;;11.29;93.13
16544;BME280;8384;47.996;7.786;2022-09-28T11:12:26;97206.56;;;11.28;94.25
16544;BME280;8384;47.996;7.786;2022-09-28T11:15:02;97190.06;;;11.33;95.46
16544;BME280;8384;47.996;7.786;2022-09-28T11:19:59;97204.25;;;11.35;95.69
16544;BME280;8384;47.996;7.786;2022-09-28T11:22:26;97202.03;;;11.37;95.21
16544;BME280;8384;47.996;7.786;2022-09-28T11:30:48;97192.03;;;10.58;100.00
16544;BME280;8384;47.996;7.786;2022-09-28T11:33:17;97176.31;;;10.49;100.00
16544;BME280;8384;47.996;7.786;2022-09-28T11:35:54;97205.16;;;10.56;100.00
16544;BME280;8384;47.996;7.786;2022-09-28T11:38:30;97195.63;;;10.72;99.01
16544;BME280;8384;47.996;7.786;2022-09-28T11:50:17;97196.19;;;10.36;98.58
16544;BME280;8384;47.996;7.786;2022-09-28T11:52:49;97191.22;;;10.38;100.00
16544;BME280;8384;47.996;7.786;2022-09-28T11:55:27;97142.38;;;10.03;100.00
16544;BME280;8384;47.996;7.786;2022-09-28T11:58:09;97174.41;;;10.50;100.00
16544;BME280;8384;47.996;7.786;2022-09-28T12:00:46;97186.97;;;10.65;98.96
16544;BME280;8384;47.996;7.786;2022-09-28T12:03:28;97183.97;;;10.47;100.00
16544;BME280;8384;47.996;7.786;2022-09-28T12:06:08;97192.28;;;10.23;100.00
16544;BME280;8384;47.996;7.786;2022-09-28T12:08:40;97192.53;;;10.60;96.86
16544;BME280;8384;47.996;7.786;2022-09-28T12:11:13;97190.47;;;10.52;96.62
16544;BME280;8384;47.996;7.786;2022-09-28T12:13:43;97196.28;;;10.64;97.22
16544;BME280;8384;47.996;7.786;2022-09-28T12:16:30;97194.03;;;10.33;97.23
16544;BME280;8384;47.996;7.786;2022-09-28T12:19:15;97197.88;;;10.32;100.00
16544;BME280;8384;47.996;7.786;2022-09-28T12:21:47;97144.63;;;10.15;99.68
16544;BME280;8384;47.996;7.786;2022-09-28T12:24:19;97195.53;;;10.44;100.00
16544;BME280;8384;47.996;7.786;2022-09-28T12:26:54;97193.72;;;10.54;100.00
16544;BME280;8384;47.996;7.786;2022-09-28T12:29:49;97183.00;;;10.43;99.82
16544;BME280;8384;47.996;7.786;2022-09-28T12:32:27;97163.03;;;10.43;100.00
16544;BME280;8384;47.996;7.786;2022-09-28T12:34:53;97182.28;;;10.52;100.00
16544;BME280;8384;47.996;7.786;2022-09-28T12:37:41;97187.06;;;10.60;100.00
16544;BME280;8384;47.996;7.786;2022-09-28T12:43:47;97193.31;;;10.27;100.00
16544;BME280;8384;47.996;7.786;2022-09-28T12:46:37;97197.94;;;10.27;100.00
16544;BME280;8384;47.996;7.786;2022-09-28T12:49:17;97180.91;;;10.16;100.00
16544;BME280;8384;47.996;7.786;2022-09-28T12:51:50;97202.84;;;10.11;100.00
16544;BME280;8384;47.996;7.786;2022-09-28T12:57:09;97198.34;;;10.20;100.00
16544;BME280;8384;47.996;7.786;2022-09-28T12:59:50;97199.75;;;10.17;100.00
16544;BME280;8384;47.996;7.786;2022-09-28T13:02:44;97190.53;;;10.13;100.00
16544;BME280;8384;47.996;7.786;2022-09-28T13:05:17;97199.66;;;10.23;100.00
16544;BME280;8384;47.996;7.786;2022-09-28T13:13:33;97209.25;;;10.20;100.00
16544;BME280;8384;47.996;7.786;2022-09-28T13:18:44;97209.31;;;10.34;100.00
16544;BME280;8384;47.996;7.786;2022-09-28T13:23:43;97195.47;;;10.30;100.00
16544;BME280;8384;47.996;7.786;2022-09-28T13:26:40;97198.34;;;10.39;100.00
16544;BME280;8384;47.996;7.786;2022-09-28T13:29:10;97204.66;;;10.34;100.00
16544;BME280;8384;47.996;7.786;2022-09-28T13:31:44;97203.34;;;10.13;100.00
16544;BME280;8384;47.996;7.786;2022-09-28T13:34:16;97203.41;;;10.27;100.00
16544;BME280;8384;47.996;7.786;2022-09-28T13:36:45;97205.56;;;10.30;100.00
16544;BME280;8384;47.996;7.786;2022-09-28T13:39:36;97194.81;;;10.19;100.00
16544;BME280;8384;47.996;7.786;2022-09-28T13:42:02;97167.72;;;10.04;100.00
16544;BME280;8384;47.996;7.786;2022-09-28T13:50:22;97201.06;;;10.39;100.00
16544;BME280;8384;47.996;7.786;2022-09-28T13:53:10;97195.94;;;10.52;100.00
16544;BME280;8384;47.996;7.786;2022-09-28T13:55:55;97194.84;;;10.53;97.90
16544;BME280;8384;47.996;7.786;2022-09-28T13:58:34;97173.25;;;10.18;99.02
16544;BME280;8384;47.996;7.786;2022-09-28T14:01:11;97209.53;;;10.38;99.99
16544;BME280;8384;47.996;7.786;2022-09-28T14:04:15;97212.50;;;10.22;98.65
16544;BME280;8384;47.996;7.786;2022-09-28T14:07:08;97209.31;;;10.34;99.08
16544;BME280;8384;47.996;7.786;2022-09-28T14:14:58;97206.78;;;10.38;96.49
16544;BME280;8384;47.996;7.786;2022-09-28T14:19:52;97194.13;;;10.28;95.42
16544;BME280;8384;47.996;7.786;2022-09-28T14:22:34;97216.47;;;10.49;96.46
16544;BME280;8384;47.996;7.786;2022-09-28T14:25:24;97219.50;;;10.47;96.40
16544;BME280;8384;47.996;7.786;2022-09-28T14:31:06;97217.59;;;10.29;98.28
16544;BME280;8384;47.996;7.786;2022-09-28T14:33:32;97224.88;;;10.33;99.03
16544;BME280;8384;47.996;7.786;2022-09-28T14:36:03;97228.94;;;10.36;98.83
16544;BME280;8384;47.996;7.786;2022-09-28T14:38:34;97231.63;;;10.41;98.19
16544;BME280;8384;47.996;7.786;2022-09-28T14:41:31;97234.66;;;10.40;97.68
16544;BME280;8384;47.996;7.786;2022-09-28T14:44:05;97239.06;;;10.35;98.67
16544;BME280;8384;47.996;7.786;2022-09-28T14:46:34;97240.81;;;10.64;97.26
16544;BME280;8384;47.996;7.786;2022-09-28T14:49:42;97240.75;;;10.84;97.70
16544;BME280;8384;47.996;7.786;2022-09-28T14:52:03;97238.19;;;10.59;98.35
16544;BME280;8384;47.996;7.786;2022-09-28T14:54:38;97246.13;;;10.36;100.00
16544;BME280;8384;47.996;7.786;2022-09-28T14:57:25;97239.00;;;10.21;100.00
16544;BME280;8384;47.996;7.786;2022-09-28T14:59:54;97243.88;;;10.05;100.00
16544;BME280;8384;47.996;7.786;2022-09-28T15:02:25;97221.28;;;9.81;100.00